createdAt,value
2024-03-12T00:01:11.157Z,23.88
2024-03-12T00:03:45.456Z,20.98
2024-03-12T00:06:13.268Z,25.08
2024-03-12T00:08:43.897Z,25.77
2024-03-12T00:11:11.202Z,19.95
2024-03-12T00:13:38.158Z,28.40
2024-03-12T00:16:06.900Z,26.80
2024-03-12T00:18:34.523Z,23.20
2024-03-12T00:21:04.813Z,21.67
2024-03-12T00:23:31.795Z,25.33
2024-03-12T00:25:58.718Z,25.25
2024-03-12T00:28:25.705Z,21.80
2024-03-12T00:30:53.830Z,19.63
2024-03-12T00:33:21.822Z,22.60
2024-03-12T00:35:49.013Z,20.55
2024-03-12T00:38:19.051Z,26.90
2024-03-12T00:40:46.972Z,24.77
2024-03-12T00:43:15.481Z,27.00
2024-03-12T00:45:42.897Z,21.10
2024-03-12T00:48:11.662Z,26.55
2024-03-12T00:50:39.455Z,23.42
2024-03-12T00:53:07.238Z,27.50
2024-03-12T00:55:34.589Z,28.23
2024-03-12T00:58:01.690Z,20.38
2024-03-12T01:00:34.890Z,20.10
2024-03-12T01:03:02.830Z,27.52
2024-03-12T01:05:32.045Z,24.83
2024-03-12T01:08:01.277Z,22.90
2024-03-12T01:10:30.547Z,28.08
2024-03-12T01:12:59.898Z,27.70
2024-03-12T01:15:28.180Z,23.73
2024-03-12T01:17:56.136Z,26.00
2024-03-12T01:20:26.286Z,21.90
2024-03-12T01:22:55.452Z,23.77
2024-03-12T01:25:23.887Z,24.17
2024-03-12T01:27:56.956Z,22.80
2024-03-12T01:30:28.187Z,24.65
2024-03-12T01:32:56.388Z,24.92
2024-03-12T01:35:25.892Z,23.55
2024-03-12T01:37:53.623Z,22.45
2024-03-12T01:40:31.282Z,23.58
2024-03-12T01:43:05.108Z,23.67
2024-03-12T01:45:34.694Z,22.13
2024-03-12T01:48:10.976Z,25.25
2024-03-12T01:50:40.595Z,27.75
2024-03-12T01:53:08.545Z,23.90
2024-03-12T01:55:44.758Z,24.65
2024-03-12T01:58:17.963Z,26.98
2024-03-12T02:00:46.989Z,24.67
2024-03-12T02:03:14.429Z,23.70
2024-03-12T02:05:42.680Z,22.48
2024-03-12T02:08:11.059Z,22.15
2024-03-12T02:10:38.040Z,25.10
2024-03-12T02:13:05.207Z,26.45
2024-03-12T02:15:34.396Z,24.52
2024-03-12T02:18:01.475Z,20.98
2024-03-12T02:20:28.786Z,27.23
2024-03-12T02:22:57.136Z,29.42
2024-03-12T02:25:24.709Z,24.27
2024-03-12T02:27:52.738Z,23.20
2024-03-12T02:30:20.044Z,26.48
2024-03-12T02:32:50.434Z,33.28
2024-03-12T02:35:18.107Z,25.92
2024-03-12T02:37:45.520Z,24.60
2024-03-12T02:40:16.743Z,23.35
2024-03-12T02:42:44.618Z,22.75
2024-03-12T02:45:21.540Z,24.80
2024-03-12T02:47:49.041Z,24.92
2024-03-12T02:50:17.575Z,21.92
2024-03-12T02:52:46.589Z,31.15
2024-03-12T02:55:14.088Z,26.70
2024-03-12T02:57:41.140Z,23.02
2024-03-12T03:00:17.260Z,26.63
2024-03-12T03:02:45.561Z,24.38
2024-03-12T03:05:13.566Z,24.42
2024-03-12T03:07:42.054Z,29.35
2024-03-12T03:10:11.297Z,28.90
2024-03-12T03:12:38.818Z,27.73
2024-03-12T03:15:06.167Z,27.17
2024-03-12T03:17:33.028Z,26.50
2024-03-12T03:20:00.073Z,22.60
2024-03-12T03:22:26.986Z,23.20
2024-03-12T03:24:54.083Z,29.92
2024-03-12T03:27:20.977Z,24.85
2024-03-12T03:29:47.864Z,27.83
2024-03-12T03:32:15.194Z,26.45
2024-03-12T03:34:43.664Z,30.17
2024-03-12T03:37:12.456Z,26.15
2024-03-12T03:39:39.544Z,22.50
2024-03-12T03:42:08.054Z,28.30
2024-03-12T03:44:35.108Z,26.25
2024-03-12T03:47:01.983Z,27.17
2024-03-12T03:49:28.857Z,25.35
2024-03-12T03:51:55.826Z,24.98
2024-03-12T03:54:22.945Z,21.02
2024-03-12T03:56:49.884Z,23.52
2024-03-12T03:59:17.695Z,23.83
2024-03-12T04:01:44.985Z,23.77
2024-03-12T04:04:14.333Z,22.20
2024-03-12T04:06:45.333Z,25.05
2024-03-12T04:09:12.605Z,22.48
2024-03-12T04:11:39.886Z,22.48
2024-03-12T04:14:09.059Z,24.52
2024-03-12T04:16:35.988Z,27.10
2024-03-12T04:19:03.150Z,24.05
2024-03-12T04:21:30.302Z,21.65
2024-03-12T04:23:57.209Z,26.15
2024-03-12T04:26:24.301Z,26.77
2024-03-12T04:28:51.172Z,22.08
2024-03-12T04:31:22.070Z,26.20
2024-03-12T04:33:53.066Z,23.25
2024-03-12T04:36:23.952Z,22.80
2024-03-12T04:38:51.182Z,20.08
2024-03-12T04:41:19.218Z,23.65
2024-03-12T04:43:46.064Z,25.98
2024-03-12T04:46:12.968Z,22.05
2024-03-12T04:48:40.608Z,28.08
2024-03-12T04:51:07.476Z,23.55
2024-03-12T04:53:34.289Z,27.85
2024-03-12T04:56:01.296Z,23.70
2024-03-12T04:58:28.126Z,17.70
2024-03-12T05:00:55.199Z,22.00
2024-03-12T05:03:22.130Z,30.77
2024-03-12T05:05:48.943Z,26.80
2024-03-12T05:08:15.902Z,23.10
2024-03-12T05:10:42.919Z,28.67
2024-03-12T05:13:09.909Z,18.48
2024-03-12T05:15:37.157Z,23.67
2024-03-12T05:18:04.187Z,28.17
2024-03-12T05:20:34.705Z,28.00
2024-03-12T05:23:03.390Z,32.65
2024-03-12T05:25:43.536Z,31.35
2024-03-12T05:28:11.235Z,25.70
2024-03-12T05:30:39.313Z,23.27
2024-03-12T05:33:11.097Z,31.70
2024-03-12T05:35:40.255Z,22.25
2024-03-12T05:38:23.472Z,26.80
2024-03-12T05:41:19.706Z,28.33
2024-03-12T05:44:05.368Z,33.13
2024-03-12T05:47:10.650Z,20.77
2024-03-12T05:49:41.110Z,29.13
2024-03-12T05:52:08.543Z,33.28
2024-03-12T05:54:35.522Z,28.02
2024-03-12T05:57:02.767Z,28.58
2024-03-12T05:59:29.707Z,42.13
2024-03-12T06:01:56.693Z,28.02
2024-03-12T06:04:23.900Z,25.20
2024-03-12T06:06:50.747Z,27.42
2024-03-12T06:09:23.584Z,26.70
2024-03-12T06:11:50.799Z,32.95
2024-03-12T06:14:17.972Z,27.58
2024-03-12T06:16:45.127Z,26.52
2024-03-12T06:19:12.181Z,22.02
2024-03-12T06:21:39.182Z,30.77
2024-03-12T06:24:06.929Z,29.73
2024-03-12T06:26:34.306Z,31.35
2024-03-12T06:29:01.648Z,36.65
2024-03-12T06:31:28.641Z,28.50
2024-03-12T06:33:55.617Z,28.02
2024-03-12T06:36:23.006Z,32.30
2024-03-12T06:38:52.333Z,30.45
2024-03-12T06:41:19.432Z,31.60
2024-03-12T06:43:46.251Z,24.17
2024-03-12T06:46:20.028Z,32.05
2024-03-12T06:48:47.484Z,31.90
2024-03-12T06:51:14.466Z,28.10
2024-03-12T06:53:41.349Z,30.95
2024-03-12T06:56:08.888Z,34.85
2024-03-12T06:58:35.967Z,34.40
2024-03-12T07:01:03.462Z,28.02
2024-03-12T07:03:32.637Z,33.90
2024-03-12T07:05:59.566Z,31.92
2024-03-12T07:08:27.256Z,30.75
2024-03-12T07:10:54.561Z,29.75
2024-03-12T07:13:24.682Z,35.17
2024-03-12T07:15:52.114Z,31.92
2024-03-12T07:18:22.628Z,28.50
2024-03-12T07:20:53.727Z,28.70
2024-03-12T07:23:20.683Z,31.25
2024-03-12T07:25:47.609Z,36.33
2024-03-12T07:28:14.550Z,32.03
2024-03-12T07:30:41.564Z,27.30
2024-03-12T07:33:08.643Z,33.42
2024-03-12T07:35:36.071Z,30.50
2024-03-12T07:38:04.377Z,31.92
2024-03-12T07:40:31.877Z,31.50
2024-03-12T07:43:00.129Z,32.53
2024-03-12T07:45:28.093Z,32.25
2024-03-12T07:47:55.369Z,38.15
2024-03-12T07:50:22.707Z,33.20
2024-03-12T07:52:49.746Z,31.48
2024-03-12T07:55:16.764Z,37.25
2024-03-12T07:57:43.724Z,36.30
2024-03-12T08:00:15.858Z,40.40
2024-03-12T08:02:43.581Z,32.75
2024-03-12T08:05:12.230Z,31.55
2024-03-12T08:07:39.980Z,34.00
2024-03-12T08:10:07.687Z,34.47
2024-03-12T08:12:34.796Z,30.55
2024-03-12T08:15:02.660Z,34.50
2024-03-12T08:17:30.077Z,26.83
2024-03-12T08:19:58.886Z,36.20
2024-03-12T08:22:26.138Z,33.65
2024-03-12T08:24:55.590Z,35.83
2024-03-12T08:27:22.565Z,31.75
2024-03-12T08:29:50.493Z,33.63
2024-03-12T08:32:17.817Z,33.40
2024-03-12T08:34:44.659Z,34.78
2024-03-12T08:37:13.291Z,43.88
2024-03-12T08:39:41.012Z,36.97
2024-03-12T08:42:10.905Z,37.35
2024-03-12T08:44:38.476Z,34.30
2024-03-12T08:47:06.233Z,35.90
2024-03-12T08:49:34.662Z,37.95
2024-03-12T08:52:01.709Z,40.38
2024-03-12T08:54:29.031Z,31.48
2024-03-12T08:56:56.281Z,31.27
2024-03-12T08:59:23.550Z,42.65
2024-03-12T09:01:50.669Z,45.40
2024-03-12T09:04:18.088Z,32.53
2024-03-12T09:06:45.065Z,37.00
2024-03-12T09:09:15.336Z,38.83
2024-03-12T09:11:42.467Z,35.88
2024-03-12T09:14:09.594Z,40.30
2024-03-12T09:16:36.509Z,34.45
2024-03-12T09:19:06.010Z,37.88
2024-03-12T09:21:35.399Z,41.03
2024-03-12T09:24:02.997Z,32.85
2024-03-12T09:26:30.673Z,38.17
2024-03-12T09:28:59.293Z,41.75
2024-03-12T09:31:26.596Z,34.95
2024-03-12T09:33:54.031Z,31.05
2024-03-12T09:36:21.928Z,34.08
2024-03-12T09:38:52.096Z,39.70
2024-03-12T09:41:21.741Z,40.95
2024-03-12T09:43:49.872Z,33.17
2024-03-12T09:46:18.303Z,34.92
2024-03-12T09:48:47.837Z,37.17
2024-03-12T09:51:15.172Z,33.20
2024-03-12T09:53:48.012Z,35.30
2024-03-12T09:56:17.350Z,33.33
2024-03-12T09:58:45.752Z,36.20
2024-03-12T10:01:14.003Z,39.33
2024-03-12T10:03:47.502Z,36.20
2024-03-12T10:06:14.595Z,35.80
2024-03-12T10:08:45.403Z,36.25
2024-03-12T10:11:23.291Z,39.90
2024-03-12T10:13:58.095Z,35.38
2024-03-12T10:16:31.345Z,30.38
2024-03-12T10:19:10.837Z,33.35
2024-03-12T10:21:39.436Z,35.70
2024-03-12T10:24:18.460Z,38.35
2024-03-12T10:26:46.471Z,36.30
2024-03-12T10:29:16.919Z,38.78
2024-03-12T10:31:46.692Z,40.78
2024-03-12T10:34:24.605Z,42.85
2024-03-12T10:36:51.976Z,47.75
2024-03-12T10:39:30.459Z,42.33
2024-03-12T10:42:00.636Z,42.47
2024-03-12T10:44:30.014Z,49.30
2024-03-12T10:47:00.679Z,47.45
2024-03-12T10:49:29.511Z,53.08
2024-03-12T10:51:57.808Z,44.35
2024-03-12T10:54:26.514Z,46.20
2024-03-12T10:56:55.654Z,40.70
2024-03-12T10:59:23.109Z,45.72
2024-03-12T11:01:50.212Z,42.85
2024-03-12T11:04:18.590Z,41.17
2024-03-12T11:06:49.164Z,39.83
2024-03-12T11:09:23.039Z,46.97
2024-03-12T11:11:50.782Z,38.10
2024-03-12T11:14:17.868Z,47.10
2024-03-12T11:16:44.975Z,43.80
2024-03-12T11:19:24.814Z,48.78
2024-03-12T11:21:53.120Z,50.00
2024-03-12T11:24:27.336Z,44.33
2024-03-12T11:26:54.342Z,30.42
2024-03-12T11:29:41.169Z,40.60
2024-03-12T11:32:12.383Z,37.47
2024-03-12T11:34:39.543Z,40.85
2024-03-12T11:37:16.031Z,36.58
2024-03-12T11:39:43.013Z,43.03
2024-03-12T11:42:16.231Z,39.08
2024-03-12T11:44:50.699Z,37.88
2024-03-12T11:47:32.816Z,33.42
2024-03-12T11:50:02.975Z,40.35
2024-03-12T11:52:33.276Z,40.13
2024-03-12T11:55:00.864Z,43.97
2024-03-12T11:57:31.184Z,39.13
2024-03-12T11:59:59.073Z,36.88
2024-03-12T12:02:27.902Z,39.22
2024-03-12T12:04:56.719Z,34.47
2024-03-12T12:07:26.698Z,42.53
2024-03-12T12:09:54.269Z,39.38
2024-03-12T12:12:21.756Z,41.35
2024-03-12T12:14:49.483Z,32.00
2024-03-12T12:17:25.132Z,39.38
2024-03-12T12:20:16.209Z,34.50
2024-03-12T12:22:47.727Z,37.35
2024-03-12T12:25:20.021Z,35.70
2024-03-12T12:27:47.647Z,31.08
2024-03-12T12:30:20.648Z,31.75
2024-03-12T12:32:52.297Z,38.38
2024-03-12T12:35:21.871Z,36.08
2024-03-12T12:37:50.419Z,35.33
2024-03-12T12:40:22.329Z,27.95
2024-03-12T12:42:54.565Z,33.22
2024-03-12T12:45:22.093Z,41.58
2024-03-12T12:47:52.034Z,40.50
2024-03-12T12:50:29.737Z,40.25
2024-03-12T12:53:02.905Z,31.58
2024-03-12T12:55:33.173Z,35.53
2024-03-12T12:58:04.925Z,34.40
2024-03-12T13:00:39.394Z,35.25
2024-03-12T13:03:18.031Z,36.38
2024-03-12T13:05:48.659Z,43.45
2024-03-12T13:08:28.317Z,46.22
2024-03-12T13:11:10.841Z,51.30
2024-03-12T13:13:45.039Z,47.17
2024-03-12T13:16:15.237Z,50.67
2024-03-12T13:19:02.515Z,51.13
2024-03-12T13:21:29.710Z,44.58
2024-03-12T13:23:56.679Z,41.30
2024-03-12T13:26:24.161Z,40.80
2024-03-12T13:28:55.226Z,45.50
2024-03-12T13:31:23.590Z,40.95
2024-03-12T13:33:52.301Z,41.40
2024-03-12T13:36:23.153Z,40.83
2024-03-12T13:38:56.936Z,38.63
2024-03-12T13:41:26.708Z,35.40
2024-03-12T13:43:53.839Z,38.17
2024-03-12T13:46:21.138Z,37.22
2024-03-12T13:48:48.415Z,36.88
2024-03-12T13:51:15.388Z,34.08
2024-03-12T13:53:44.224Z,45.53
2024-03-12T13:56:11.421Z,32.58
2024-03-12T13:58:41.016Z,37.63
2024-03-12T14:01:12.733Z,30.58
2024-03-12T14:03:41.640Z,35.92
2024-03-12T14:06:10.405Z,34.35
2024-03-12T14:08:37.884Z,34.53
2024-03-12T14:11:05.133Z,34.13
2024-03-12T14:13:33.211Z,37.88
2024-03-12T14:16:00.657Z,32.13
2024-03-12T14:18:28.261Z,35.30
2024-03-12T14:20:56.247Z,40.00
2024-03-12T14:23:24.158Z,34.88
2024-03-12T14:25:51.242Z,42.17
2024-03-12T14:28:18.349Z,40.08
2024-03-12T14:30:48.504Z,36.35
2024-03-12T14:33:15.599Z,38.78
2024-03-12T14:35:42.595Z,39.40
2024-03-12T14:38:09.534Z,35.10
2024-03-12T14:40:36.518Z,42.17
2024-03-12T14:43:04.714Z,48.13
2024-03-12T14:45:32.044Z,37.35
2024-03-12T14:47:59.270Z,33.90
2024-03-12T14:50:26.173Z,41.25
2024-03-12T14:52:53.204Z,36.05
2024-03-12T14:55:20.100Z,40.40
2024-03-12T14:57:46.971Z,34.97
2024-03-12T15:00:17.934Z,44.33
2024-03-12T15:02:46.269Z,42.25
2024-03-12T15:05:13.952Z,37.10
2024-03-12T15:07:42.902Z,43.30
2024-03-12T15:10:10.711Z,40.05
2024-03-12T15:12:40.827Z,44.65
2024-03-12T15:15:12.315Z,38.92
2024-03-12T15:17:40.418Z,36.05
2024-03-12T15:20:12.527Z,41.58
2024-03-12T15:22:39.316Z,36.35
2024-03-12T15:25:13.149Z,40.28
2024-03-12T15:27:43.160Z,43.75
2024-03-12T15:30:11.109Z,42.88
2024-03-12T15:32:39.958Z,40.85
2024-03-12T15:35:07.921Z,49.15
2024-03-12T15:37:36.729Z,50.95
2024-03-12T15:40:09.191Z,49.13
2024-03-12T15:42:42.947Z,51.58
2024-03-12T15:45:12.137Z,49.50
2024-03-12T15:47:40.934Z,52.00
2024-03-12T15:50:08.832Z,39.85
2024-03-12T15:52:36.140Z,39.83
2024-03-12T15:55:03.533Z,47.33
2024-03-12T15:57:31.077Z,41.95
2024-03-12T15:59:58.298Z,45.65
2024-03-12T16:02:25.647Z,46.95
2024-03-12T16:04:52.678Z,39.30
2024-03-12T16:07:19.848Z,41.75
2024-03-12T16:09:47.387Z,36.97
2024-03-12T16:12:14.821Z,44.42
2024-03-12T16:14:44.670Z,46.92
2024-03-12T16:17:13.262Z,49.15
2024-03-12T16:19:40.171Z,44.63
2024-03-12T16:22:08.527Z,51.03
2024-03-12T16:24:35.450Z,50.10
2024-03-12T16:27:05.088Z,52.75
2024-03-12T16:29:34.203Z,36.80
2024-03-12T16:32:06.478Z,45.75
2024-03-12T16:34:33.541Z,43.60
2024-03-12T16:37:00.499Z,35.92
2024-03-12T16:39:27.376Z,38.92
2024-03-12T16:41:57.894Z,35.20
2024-03-12T16:44:28.196Z,40.67
2024-03-12T16:46:55.668Z,37.70
2024-03-12T16:49:27.284Z,39.22
2024-03-12T16:51:54.731Z,38.00
2024-03-12T16:54:21.968Z,32.05
2024-03-12T16:56:49.131Z,38.15
2024-03-12T16:59:19.565Z,37.80
2024-03-12T17:01:48.058Z,35.67
2024-03-12T17:04:15.495Z,34.20
2024-03-12T17:06:42.902Z,34.47
2024-03-12T17:09:11.109Z,44.10
2024-03-12T17:11:39.121Z,34.15
2024-03-12T17:14:12.107Z,28.88
2024-03-12T17:16:46.766Z,35.72
2024-03-12T17:19:17.279Z,35.25
2024-03-12T17:21:44.985Z,28.00
2024-03-12T17:24:14.352Z,35.13
2024-03-12T17:26:41.662Z,35.65
2024-03-12T17:29:11.059Z,24.50
2024-03-12T17:31:39.703Z,27.95
2024-03-12T17:34:07.322Z,37.17
2024-03-12T17:36:35.590Z,26.95
2024-03-12T17:39:10.899Z,37.72
2024-03-12T17:41:38.998Z,27.65
2024-03-12T17:44:07.792Z,27.70
2024-03-12T17:46:43.731Z,26.50
2024-03-12T17:49:17.898Z,28.10
2024-03-12T17:51:46.038Z,21.10
2024-03-12T17:54:15.614Z,25.65
2024-03-12T17:56:49.991Z,28.67
2024-03-12T17:59:20.147Z,28.40
2024-03-12T18:01:48.296Z,30.15
2024-03-12T18:04:16.128Z,25.08
2024-03-12T18:06:45.491Z,24.80
2024-03-12T18:09:15.681Z,23.77
2024-03-12T18:11:43.883Z,24.98
2024-03-12T18:14:11.265Z,23.20
2024-03-12T18:16:39.490Z,26.88
2024-03-12T18:19:07.374Z,24.08
2024-03-12T18:21:34.488Z,26.00
2024-03-12T18:24:01.645Z,31.27
2024-03-12T18:26:29.034Z,26.58
2024-03-12T18:28:57.919Z,25.80
2024-03-12T18:31:25.481Z,25.92
2024-03-12T18:33:52.399Z,22.48
2024-03-12T18:36:19.421Z,24.83
2024-03-12T18:38:46.368Z,26.65
2024-03-12T18:41:15.231Z,22.88
2024-03-12T18:43:42.222Z,25.02
2024-03-12T18:46:09.568Z,26.73
2024-03-12T18:48:37.103Z,28.30
2024-03-12T18:51:05.799Z,28.52
2024-03-12T18:53:34.688Z,27.27
2024-03-12T18:56:02.315Z,33.65
2024-03-12T18:58:30.275Z,29.55
2024-03-12T19:00:58.415Z,29.25
2024-03-12T19:03:35.921Z,29.83
2024-03-12T19:06:18.467Z,34.95
2024-03-12T19:08:51.572Z,25.42
2024-03-12T19:11:20.778Z,24.27
2024-03-12T19:13:48.366Z,32.22
2024-03-12T19:16:18.665Z,23.08
2024-03-12T19:18:52.060Z,22.80
2024-03-12T19:21:20.953Z,28.52
2024-03-12T19:23:49.917Z,28.25
2024-03-12T19:26:19.137Z,23.88
2024-03-12T19:28:46.959Z,25.48
2024-03-12T19:31:15.377Z,34.95
2024-03-12T19:33:43.533Z,30.67
2024-03-12T19:36:15.817Z,33.30
2024-03-12T19:38:43.076Z,36.35
2024-03-12T19:41:13.418Z,26.85
2024-03-12T19:43:41.074Z,27.48
2024-03-12T19:46:09.065Z,25.70
2024-03-12T19:48:37.166Z,26.25
2024-03-12T19:51:08.408Z,28.48
2024-03-12T19:53:35.556Z,23.42
2024-03-12T19:56:02.549Z,25.92
2024-03-12T19:58:30.739Z,25.67
2024-03-12T20:00:58.880Z,26.33
2024-03-12T20:03:26.931Z,25.63
2024-03-12T20:05:58.029Z,25.25
2024-03-12T20:08:26.773Z,27.23
2024-03-12T20:10:54.013Z,30.05
2024-03-12T20:13:22.044Z,32.25
2024-03-12T20:15:49.094Z,26.63
2024-03-12T20:18:16.376Z,26.88
2024-03-12T20:20:44.600Z,30.58
2024-03-12T20:23:12.056Z,28.23
2024-03-12T20:25:40.959Z,27.50
2024-03-12T20:28:11.029Z,29.85
2024-03-12T20:30:39.894Z,28.40
2024-03-12T20:33:09.669Z,23.10
2024-03-12T20:35:39.331Z,31.05
2024-03-12T20:38:07.927Z,25.23
2024-03-12T20:40:34.926Z,30.08
2024-03-12T20:43:02.016Z,28.92
2024-03-12T20:45:30.159Z,31.98
2024-03-12T20:47:57.486Z,33.50
2024-03-12T20:50:24.984Z,27.38
2024-03-12T20:52:52.153Z,34.72
2024-03-12T20:55:19.845Z,29.45
2024-03-12T20:57:49.059Z,30.67
2024-03-12T21:00:18.111Z,32.90
2024-03-12T21:02:49.633Z,33.95
2024-03-12T21:05:17.450Z,30.30
2024-03-12T21:07:44.839Z,34.17
2024-03-12T21:10:12.798Z,33.60
2024-03-12T21:12:49.896Z,33.67
2024-03-12T21:15:17.888Z,41.97
2024-03-12T21:17:45.764Z,33.95
2024-03-12T21:20:19.722Z,43.90
2024-03-12T21:22:46.700Z,34.78
2024-03-12T21:25:13.648Z,29.48
2024-03-12T21:30:13.588Z,25.85
2024-03-12T21:32:41.780Z,30.65
2024-03-12T21:35:09.243Z,30.00
2024-03-12T21:37:39.375Z,33.92
2024-03-12T21:40:12.648Z,29.10
2024-03-12T21:42:40.436Z,18.45
2024-03-12T21:45:07.638Z,25.38
2024-03-12T21:47:38.007Z,27.95
2024-03-12T21:50:15.123Z,28.33
2024-03-12T21:52:42.422Z,33.35
2024-03-12T21:55:11.381Z,30.80
2024-03-12T21:57:44.589Z,28.42
2024-03-12T22:00:19.778Z,29.70
2024-03-12T22:02:47.949Z,28.15
2024-03-12T22:05:17.057Z,26.20
2024-03-12T22:07:45.019Z,24.48
2024-03-12T22:10:13.723Z,27.17
2024-03-12T22:12:41.594Z,21.63
2024-03-12T22:15:12.258Z,32.92
2024-03-12T22:17:39.386Z,27.33
2024-03-12T22:20:06.810Z,27.73
2024-03-12T22:22:33.993Z,25.88
2024-03-12T22:25:01.141Z,30.27
2024-03-12T22:27:29.467Z,26.15
2024-03-12T22:29:56.566Z,24.77
2024-03-12T22:32:27.341Z,25.23
2024-03-12T22:34:55.928Z,29.45
2024-03-12T22:37:23.334Z,25.38
2024-03-12T22:39:50.681Z,34.75
2024-03-12T22:42:18.742Z,32.25
2024-03-12T22:44:46.044Z,33.13
2024-03-12T22:47:13.406Z,28.10
2024-03-12T22:49:44.556Z,37.75
2024-03-12T22:52:12.759Z,22.98
2024-03-12T22:54:41.446Z,28.52
2024-03-12T22:57:09.565Z,31.75
2024-03-12T22:59:36.746Z,32.17
2024-03-12T23:02:04.329Z,34.22
2024-03-12T23:04:31.455Z,34.58
2024-03-12T23:07:01.382Z,40.20
2024-03-12T23:09:28.673Z,33.22
2024-03-12T23:11:58.312Z,33.13
2024-03-12T23:14:25.282Z,35.95
2024-03-12T23:16:52.795Z,26.00
2024-03-12T23:19:19.735Z,33.40
2024-03-12T23:21:46.953Z,35.80
2024-03-12T23:24:14.958Z,39.05
2024-03-12T23:26:43.562Z,38.28
2024-03-12T23:29:13.531Z,36.05
2024-03-12T23:31:40.431Z,40.30
2024-03-12T23:34:07.601Z,41.97
2024-03-12T23:36:34.785Z,36.65
2024-03-12T23:39:01.834Z,40.42
2024-03-12T23:41:31.256Z,47.80
2024-03-12T23:43:58.357Z,48.33
2024-03-12T23:46:26.095Z,51.28
2024-03-12T23:48:53.414Z,46.40
2024-03-12T23:51:20.248Z,47.20
2024-03-12T23:53:47.373Z,43.08
2024-03-12T23:56:14.276Z,41.92
2024-03-12T23:58:41.103Z,41.75
